Time;durP1;ratioP1;P1;durP2;ratioP2;P2;SDS_P1;SDS_P2;PMS_P1;PMS_P2;Temp;Humidity;BMP_temperature;BMP_pressure;BME280_temperature;BME280_humidity;BME280_pressure;Samples;Min_cycle;Max_cycle;Signal;HPM_P1;HPM_P2
2022/03/04 00:00:41;;;;;;;104.70;54.08;;;;;;;;;;5141525;27;20023;-86
2022/03/04 00:03:07;;;;;;;115.18;54.72;;;;;;;;;;5141696;27;20020;-87
2022/03/04 00:05:33;;;;;;;105.80;52.25;;;;;;;;;;5141307;27;20079;-87
2022/03/04 00:08:00;;;;;;;116.85;55.92;;;;;;;;;;5141358;27;20026;-87
2022/03/04 00:13:32;;;;;;;116.43;54.60;;;;;;;;;;5141367;27;20030;-87
2022/03/04 00:15:59;;;;;;;107.45;53.15;;;;;;;;;;5140943;27;20469;-89
2022/03/04 00:18:26;;;;;;;105.05;53.88;;;;;;;;;;5141092;27;20034;-89
2022/03/04 00:20:52;;;;;;;112.05;54.13;;;;;;;;;;5140775;27;20443;-88
2022/03/04 00:23:19;;;;;;;108.03;53.33;;;;;;;;;;5141210;27;20019;-87
2022/03/04 00:25:45;;;;;;;115.75;54.30;;;;;;;;;;5141056;27;20023;-87
2022/03/04 00:28:12;;;;;;;109.03;51.90;;;;;;;;;;5141104;27;20035;-86
2022/03/04 00:30:38;;;;;;;103.07;51.88;;;;;;;;;;5140481;27;20401;-85
2022/03/04 00:33:04;;;;;;;101.78;51.17;;;;;;;;;;5140684;27;20026;-86
2022/03/04 00:35:30;;;;;;;94.43;46.95;;;;;;;;;;5122450;27;20030;-86
2022/03/04 00:37:56;;;;;;;89.53;44.90;;;;;;;;;;5139848;27;20102;-86
2022/03/04 00:40:22;;;;;;;88.05;43.63;;;;;;;;;;5139872;27;20030;-86
2022/03/04 00:42:48;;;;;;;79.88;42.53;;;;;;;;;;5122292;27;20020;-86
2022/03/04 00:45:15;;;;;;;80.65;42.25;;;;;;;;;;5140514;27;20033;-86
2022/03/04 00:47:41;;;;;;;91.15;43.88;;;;;;;;;;5113883;27;20072;-85
2022/03/04 00:50:07;;;;;;;90.90;44.15;;;;;;;;;;5140356;27;20027;-86
2022/03/04 00:52:34;;;;;;;87.82;43.20;;;;;;;;;;5140640;27;20416;-86
2022/03/04 00:55:00;;;;;;;87.30;42.00;;;;;;;;;;5120945;27;20035;-85
2022/03/04 00:57:26;;;;;;;85.35;43.95;;;;;;;;;;5121855;27;20066;-87
2022/03/04 00:59:52;;;;;;;89.30;48.25;;;;;;;;;;5121986;27;20047;-88
2022/03/04 01:02:18;;;;;;;86.18;46.15;;;;;;;;;;5140151;27;20031;-88
2022/03/04 01:04:44;;;;;;;89.25;48.30;;;;;;;;;;5121984;27;20453;-86
2022/03/04 01:07:11;;;;;;;86.68;46.22;;;;;;;;;;5139882;27;20044;-87
2022/03/04 01:09:37;;;;;;;83.07;43.88;;;;;;;;;;5139752;27;20035;-86
2022/03/04 01:12:03;;;;;;;84.63;45.65;;;;;;;;;;5139757;27;20027;-86
2022/03/04 01:14:32;;;;;;;87.65;45.85;;;;;;;;;;5121825;27;20027;-87
2022/03/04 01:16:58;;;;;;;81.18;44.55;;;;;;;;;;5139704;27;20474;-87
2022/03/04 01:19:24;;;;;;;86.13;41.88;;;;;;;;;;5139818;27;20027;-87
2022/03/04 01:21:50;;;;;;;82.18;41.97;;;;;;;;;;5121261;27;20381;-86
2022/03/04 01:24:18;;;;;;;81.40;41.63;;;;;;;;;;5139972;27;20027;-87
2022/03/04 01:26:44;;;;;;;83.47;41.65;;;;;;;;;;5139437;27;20019;-87
2022/03/04 01:29:10;;;;;;;82.80;41.03;;;;;;;;;;5121179;27;20031;-87
2022/03/04 01:31:36;;;;;;;85.88;44.97;;;;;;;;;;5139683;27;20081;-87
2022/03/04 01:34:02;;;;;;;88.30;45.88;;;;;;;;;;5139335;27;20035;-87
2022/03/04 01:36:33;;;;;;;92.35;47.45;;;;;;;;;;5139153;27;20033;-87
2022/03/04 01:38:59;;;;;;;82.78;44.90;;;;;;;;;;5139464;27;20388;-87
2022/03/04 01:41:25;;;;;;;84.30;43.88;;;;;;;;;;5120836;27;20023;-88
2022/03/04 01:43:51;;;;;;;80.38;41.20;;;;;;;;;;5121175;27;20015;-87
2022/03/04 01:46:18;;;;;;;78.97;40.25;;;;;;;;;;5121247;27;20076;-87
2022/03/04 01:48:45;;;;;;;81.25;40.47;;;;;;;;;;5139510;27;20068;-86
2022/03/04 01:51:11;;;;;;;79.15;40.95;;;;;;;;;;5138580;27;20041;-87
2022/03/04 01:53:38;;;;;;;78.53;41.78;;;;;;;;;;5139010;27;20031;-88
2022/03/04 01:56:04;;;;;;;82.78;41.25;;;;;;;;;;5138615;27;20084;-88
2022/03/04 01:58:30;;;;;;;76.50;40.33;;;;;;;;;;5139080;27;20393;-88
2022/03/04 02:00:56;;;;;;;74.10;40.65;;;;;;;;;;5139206;27;20064;-88
2022/03/04 02:03:23;;;;;;;70.00;38.65;;;;;;;;;;5121110;27;20019;-90
2022/03/04 02:05:49;;;;;;;70.13;40.15;;;;;;;;;;5139227;27;20102;-90
2022/03/04 02:08:16;;;;;;;73.82;38.95;;;;;;;;;;5139014;27;20036;-90
2022/03/04 02:10:42;;;;;;;73.15;38.72;;;;;;;;;;5138872;27;20027;-89
2022/03/04 02:13:08;;;;;;;69.85;37.20;;;;;;;;;;5139103;27;20114;-89
2022/03/04 02:15:34;;;;;;;74.90;39.65;;;;;;;;;;5139040;27;20027;-88
2022/03/04 02:18:00;;;;;;;75.07;39.25;;;;;;;;;;5138905;27;20405;-89
2022/03/04 02:20:28;;;;;;;82.15;41.55;;;;;;;;;;5138826;27;20015;-90
2022/03/04 02:22:54;;;;;;;74.18;40.45;;;;;;;;;;5138789;27;20019;-88
2022/03/04 02:25:20;;;;;;;75.95;40.30;;;;;;;;;;5138926;27;20023;-89
2022/03/04 02:27:46;;;;;;;77.15;42.05;;;;;;;;;;5138645;27;20106;-88
2022/03/04 02:30:14;;;;;;;72.57;39.92;;;;;;;;;;5120226;28;20042;-89
2022/03/04 02:32:40;;;;;;;73.68;40.88;;;;;;;;;;5138926;28;20094;-89
2022/03/04 02:35:06;;;;;;;68.65;38.47;;;;;;;;;;5120491;28;20023;-88
2022/03/04 02:37:33;;;;;;;75.82;41.42;;;;;;;;;;5120094;28;20055;-89
2022/03/04 02:39:59;;;;;;;86.90;46.42;;;;;;;;;;5138629;28;20046;-89
2022/03/04 02:42:25;;;;;;;78.18;43.35;;;;;;;;;;5138587;28;20064;-89
2022/03/04 02:44:51;;;;;;;82.45;44.20;;;;;;;;;;5119958;28;20123;-89
2022/03/04 02:47:17;;;;;;;80.63;42.25;;;;;;;;;;5138936;28;20015;-88
2022/03/04 02:49:43;;;;;;;73.80;40.58;;;;;;;;;;5138448;28;20026;-87
2022/03/04 02:52:09;;;;;;;72.20;41.35;;;;;;;;;;5138188;28;20027;-87
2022/03/04 02:54:35;;;;;;;72.57;37.75;;;;;;;;;;5138006;28;20027;-89
2022/03/04 02:57:01;;;;;;;69.15;38.15;;;;;;;;;;5137949;28;20049;-86
2022/03/04 02:59:27;;;;;;;73.10;38.70;;;;;;;;;;5138501;28;20027;-87
2022/03/04 03:01:53;;;;;;;72.63;38.28;;;;;;;;;;5139462;27;20032;-86
2022/03/04 03:04:19;;;;;;;73.32;37.45;;;;;;;;;;5124252;27;20015;-87
2022/03/04 03:06:45;;;;;;;71.28;36.88;;;;;;;;;;5142584;27;20439;-87
2022/03/04 03:09:12;;;;;;;68.80;35.72;;;;;;;;;;5123778;27;20035;-87
2022/03/04 03:11:38;;;;;;;73.53;39.25;;;;;;;;;;5142277;27;20023;-87
2022/03/04 03:14:04;;;;;;;73.50;37.75;;;;;;;;;;5142165;27;20034;-88
2022/03/04 03:16:30;;;;;;;69.93;37.50;;;;;;;;;;5141789;27;20413;-87
2022/03/04 03:18:56;;;;;;;70.25;36.13;;;;;;;;;;5142012;27;20405;-86
2022/03/04 03:21:22;;;;;;;67.47;35.28;;;;;;;;;;5142332;27;20031;-88
2022/03/04 03:23:48;;;;;;;67.22;35.60;;;;;;;;;;5141984;27;20027;-89
2022/03/04 03:26:14;;;;;;;63.90;34.95;;;;;;;;;;5142176;27;20023;-88
2022/03/04 03:28:40;;;;;;;64.22;34.47;;;;;;;;;;5141881;27;20043;-89
2022/03/04 03:31:07;;;;;;;63.50;35.70;;;;;;;;;;5142328;27;20043;-87
2022/03/04 03:33:36;;;;;;;69.95;37.05;;;;;;;;;;5141962;27;20023;-87
2022/03/04 03:36:02;;;;;;;96.60;48.33;;;;;;;;;;5141885;27;20031;-87
2022/03/04 03:38:28;;;;;;;84.97;43.08;;;;;;;;;;5123260;27;20401;-87
2022/03/04 03:40:54;;;;;;;75.57;38.67;;;;;;;;;;5123164;27;20439;-87
2022/03/04 03:43:20;;;;;;;76.22;39.28;;;;;;;;;;5141649;27;20051;-87
2022/03/04 03:45:46;;;;;;;77.93;41.70;;;;;;;;;;5141688;27;20028;-87
2022/03/04 03:48:12;;;;;;;70.60;38.60;;;;;;;;;;5123738;27;20051;-87
2022/03/04 03:50:38;;;;;;;91.97;45.20;;;;;;;;;;5141091;27;20080;-88
2022/03/04 03:53:06;;;;;;;85.07;43.38;;;;;;;;;;5141408;27;20031;-87
2022/03/04 03:55:32;;;;;;;89.75;44.03;;;;;;;;;;5141003;27;20023;-88
2022/03/04 03:57:58;;;;;;;90.55;46.53;;;;;;;;;;5141324;27;20050;-88
2022/03/04 04:00:24;;;;;;;88.22;45.22;;;;;;;;;;5123296;27;20011;-87
2022/03/04 04:02:50;;;;;;;84.90;44.00;;;;;;;;;;5141395;27;20030;-89
2022/03/04 04:05:16;;;;;;;78.22;43.80;;;;;;;;;;5141447;27;20024;-89
2022/03/04 04:07:42;;;;;;;83.60;43.65;;;;;;;;;;5141665;27;20050;-88
2022/03/04 04:10:08;;;;;;;86.13;45.38;;;;;;;;;;5141195;27;20026;-88
2022/03/04 04:12:35;;;;;;;86.03;44.83;;;;;;;;;;5141076;27;20171;-88
2022/03/04 04:15:01;;;;;;;87.22;44.80;;;;;;;;;;5141212;27;20031;-88
2022/03/04 04:17:27;;;;;;;94.53;50.53;;;;;;;;;;5141081;27;20027;-88
2022/03/04 04:19:53;;;;;;;99.55;47.15;;;;;;;;;;5141191;27;20039;-88
2022/03/04 04:22:19;;;;;;;97.70;49.30;;;;;;;;;;5140916;27;20114;-88
2022/03/04 04:24:45;;;;;;;118.03;57.13;;;;;;;;;;5122802;27;20080;-89
2022/03/04 04:27:11;;;;;;;107.15;52.80;;;;;;;;;;5140872;27;20129;-89
2022/03/04 04:29:37;;;;;;;102.75;51.65;;;;;;;;;;5141120;27;20393;-89
2022/03/04 04:32:04;;;;;;;98.03;47.38;;;;;;;;;;5140885;27;20061;-89
2022/03/04 04:34:30;;;;;;;90.93;45.90;;;;;;;;;;5105762;27;20031;-88
2022/03/04 04:36:56;;;;;;;88.82;46.15;;;;;;;;;;5140669;27;20019;-89
2022/03/04 04:39:22;;;;;;;94.25;47.55;;;;;;;;;;5140572;27;20067;-88
2022/03/04 04:41:48;;;;;;;84.90;45.30;;;;;;;;;;5122389;27;20016;-89
2022/03/04 04:44:15;;;;;;;104.13;53.47;;;;;;;;;;5140523;27;20023;-88
2022/03/04 04:46:41;;;;;;;106.75;55.72;;;;;;;;;;5122902;27;20019;-88
2022/03/04 04:49:07;;;;;;;103.35;54.00;;;;;;;;;;5121999;27;20061;-87
2022/03/04 04:51:33;;;;;;;107.53;55.83;;;;;;;;;;5122106;27;20031;-87
2022/03/04 04:53:59;;;;;;;105.80;54.17;;;;;;;;;;5140186;27;20030;-86
2022/03/04 04:56:25;;;;;;;130.82;57.30;;;;;;;;;;5121433;27;20081;-86
2022/03/04 04:58:51;;;;;;;106.95;54.25;;;;;;;;;;5139973;27;20015;-87
2022/03/04 05:01:17;;;;;;;135.15;63.22;;;;;;;;;;5140261;27;20023;-87
2022/03/04 05:03:44;;;;;;;141.38;65.50;;;;;;;;;;5140015;27;20104;-88
2022/03/04 05:06:10;;;;;;;132.88;60.53;;;;;;;;;;5139987;27;20027;-89
2022/03/04 05:08:36;;;;;;;105.65;54.65;;;;;;;;;;5139991;27;20143;-88
2022/03/04 05:11:02;;;;;;;100.72;52.95;;;;;;;;;;5140127;27;20042;-87
2022/03/04 05:13:29;;;;;;;117.53;61.78;;;;;;;;;;5121419;27;20042;-88
2022/03/04 05:15:55;;;;;;;131.35;63.97;;;;;;;;;;5139789;27;20114;-87
2022/03/04 05:18:21;;;;;;;116.07;55.88;;;;;;;;;;5139712;27;20052;-90
2022/03/04 05:20:47;;;;;;;118.20;57.88;;;;;;;;;;5140043;27;20058;-89
2022/03/04 05:23:58;;;;;;;175.00;74.45;;;;;;;;;;5139807;27;20408;-90
2022/03/04 05:26:02;;;;;;;165.13;69.78;;;;;;;;;;5138891;27;20064;-87
2022/03/04 05:28:28;;;;;;;160.70;67.60;;;;;;;;;;5139491;27;20054;-88
2022/03/04 05:30:54;;;;;;;132.80;63.03;;;;;;;;;;5121717;27;20031;-87
2022/03/04 05:33:21;;;;;;;144.85;64.40;;;;;;;;;;5139630;27;20024;-87
2022/03/04 05:35:47;;;;;;;141.90;66.00;;;;;;;;;;5121417;27;20433;-88
2022/03/04 05:38:13;;;;;;;131.95;64.25;;;;;;;;;;5139348;27;20401;-86
2022/03/04 05:40:39;;;;;;;153.80;71.18;;;;;;;;;;5139206;27;20019;-86
2022/03/04 05:43:05;;;;;;;150.98;69.65;;;;;;;;;;5139327;27;20023;-86
2022/03/04 05:45:31;;;;;;;112.00;55.53;;;;;;;;;;5139200;27;20055;-86
2022/03/04 05:47:57;;;;;;;112.68;55.00;;;;;;;;;;5139378;27;20031;-87
2022/03/04 05:50:23;;;;;;;111.57;55.08;;;;;;;;;;5139323;27;20069;-86
2022/03/04 05:52:49;;;;;;;126.43;59.85;;;;;;;;;;5139456;27;20030;-87
2022/03/04 05:55:16;;;;;;;126.80;61.50;;;;;;;;;;5139070;27;20110;-89
2022/03/04 05:57:42;;;;;;;211.38;81.95;;;;;;;;;;5138811;27;20444;-89
2022/03/04 06:00:09;;;;;;;330.00;109.10;;;;;;;;;;5120926;27;20033;-88
2022/03/04 06:02:35;;;;;;;289.95;97.43;;;;;;;;;;5139192;27;20034;-87
2022/03/04 06:05:01;;;;;;;270.67;97.32;;;;;;;;;;5120907;27;20020;-87
2022/03/04 06:07:33;;;;;;;200.73;82.05;;;;;;;;;;5138924;27;20026;-87
2022/03/04 06:09:59;;;;;;;238.13;87.78;;;;;;;;;;5120637;27;20409;-87
2022/03/04 06:12:26;;;;;;;143.00;61.30;;;;;;;;;;5138848;27;20034;-88
2022/03/04 06:14:52;;;;;;;150.27;64.28;;;;;;;;;;5138668;27;20027;-88
2022/03/04 06:17:18;;;;;;;131.27;59.97;;;;;;;;;;5138718;27;20019;-87
2022/03/04 06:19:44;;;;;;;121.40;60.15;;;;;;;;;;5138919;27;20042;-88
2022/03/04 06:22:11;;;;;;;124.22;58.15;;;;;;;;;;5119945;28;20034;-87
2022/03/04 06:24:37;;;;;;;121.78;58.30;;;;;;;;;;5099414;28;20045;-88
2022/03/04 06:27:03;;;;;;;119.72;60.08;;;;;;;;;;5099577;28;20031;-86
2022/03/04 06:29:30;;;;;;;137.88;60.10;;;;;;;;;;5116710;28;20039;-88
2022/03/04 06:31:56;;;;;;;134.10;61.50;;;;;;;;;;5099320;28;20024;-89
2022/03/04 06:34:22;;;;;;;137.45;60.90;;;;;;;;;;5117855;28;20024;-87
2022/03/04 06:36:48;;;;;;;121.07;57.78;;;;;;;;;;5119048;28;20131;-88
2022/03/04 06:39:14;;;;;;;121.22;59.55;;;;;;;;;;5104107;28;20282;-87
2022/03/04 06:41:40;;;;;;;114.95;57.70;;;;;;;;;;5121979;28;20405;-87
2022/03/04 06:44:06;;;;;;;121.15;60.17;;;;;;;;;;5119443;28;20024;-87
2022/03/04 06:46:32;;;;;;;110.25;55.40;;;;;;;;;;5122134;28;20024;-88
2022/03/04 06:48:59;;;;;;;117.82;57.65;;;;;;;;;;5122140;28;20153;-87
2022/03/04 06:51:25;;;;;;;109.85;57.97;;;;;;;;;;5121901;28;20144;-87
2022/03/04 06:53:51;;;;;;;134.40;61.22;;;;;;;;;;5122367;28;20028;-86
2022/03/04 06:56:17;;;;;;;134.35;60.80;;;;;;;;;;5110013;27;20058;-87
2022/03/04 06:58:43;;;;;;;134.82;62.47;;;;;;;;;;5142666;27;20046;-87
2022/03/04 07:01:09;;;;;;;127.05;56.53;;;;;;;;;;5132106;27;20034;-86
2022/03/04 07:03:35;;;;;;;90.45;44.95;;;;;;;;;;5133150;27;20321;-87
2022/03/04 07:06:01;;;;;;;75.38;41.50;;;;;;;;;;5120595;28;20027;-87
2022/03/04 07:08:27;;;;;;;85.40;40.72;;;;;;;;;;5140455;27;20031;-86
2022/03/04 07:11:12;;;;;;;75.85;39.10;;;;;;;;;;5142332;27;20027;-87
2022/03/04 07:13:38;;;;;;;77.72;39.78;;;;;;;;;;5142596;27;20027;-87
2022/03/04 07:16:04;;;;;;;75.10;40.25;;;;;;;;;;5141692;27;20034;-88
2022/03/04 07:18:31;;;;;;;72.22;38.92;;;;;;;;;;5142432;27;20305;-88
2022/03/04 07:20:57;;;;;;;73.78;38.72;;;;;;;;;;5124023;27;20162;-87
2022/03/04 07:23:24;;;;;;;77.50;39.92;;;;;;;;;;5142119;27;20019;-87
2022/03/04 07:26:09;;;;;;;92.28;44.42;;;;;;;;;;5142009;27;20123;-87
2022/03/04 07:28:36;;;;;;;188.45;85.93;;;;;;;;;;5123630;27;20041;-87
2022/03/04 07:31:02;;;;;;;93.60;46.35;;;;;;;;;;5141814;27;20019;-85
2022/03/04 07:33:28;;;;;;;77.20;41.95;;;;;;;;;;5141956;27;20030;-87
2022/03/04 07:35:54;;;;;;;79.35;41.22;;;;;;;;;;5123933;27;20032;-87
2022/03/04 07:38:20;;;;;;;75.45;39.72;;;;;;;;;;5141441;27;20031;-86
2022/03/04 07:40:46;;;;;;;81.40;42.55;;;;;;;;;;5123633;27;20316;-86
2022/03/04 07:43:12;;;;;;;79.80;41.08;;;;;;;;;;5141703;27;20099;-87
2022/03/04 07:45:38;;;;;;;92.25;45.70;;;;;;;;;;5141952;27;20029;-87
2022/03/04 07:48:05;;;;;;;77.93;42.08;;;;;;;;;;5120605;27;20032;-87
2022/03/04 07:50:31;;;;;;;90.57;42.95;;;;;;;;;;5123362;27;20031;-88
2022/03/04 07:52:57;;;;;;;76.10;40.00;;;;;;;;;;5138239;27;20055;-88
2022/03/04 07:58:27;;;;;;;123.20;49.35;;;;;;;;;;5119636;28;20038;-87
2022/03/04 08:00:53;;;;;;;86.97;43.38;;;;;;;;;;5107484;28;20028;-87
2022/03/04 08:03:19;;;;;;;84.10;44.47;;;;;;;;;;5119515;28;20027;-87
2022/03/04 08:05:45;;;;;;;72.00;42.80;;;;;;;;;;5097666;28;20126;-88
2022/03/04 08:08:11;;;;;;;74.03;41.17;;;;;;;;;;5102053;28;20028;-87
2022/03/04 08:10:37;;;;;;;87.95;48.25;;;;;;;;;;5102711;28;20032;-87
2022/03/04 08:13:04;;;;;;;85.05;44.25;;;;;;;;;;5102574;28;20043;-88
2022/03/04 08:15:30;;;;;;;83.63;43.17;;;;;;;;;;5102508;28;20039;-87
2022/03/04 08:17:56;;;;;;;74.35;41.47;;;;;;;;;;5097902;28;20070;-87
2022/03/04 08:20:22;;;;;;;80.88;42.15;;;;;;;;;;5117861;28;20020;-84
2022/03/04 08:22:48;;;;;;;83.18;42.90;;;;;;;;;;5120425;28;20020;-85
2022/03/04 08:25:15;;;;;;;75.53;43.20;;;;;;;;;;5102866;28;20055;-84
2022/03/04 08:27:41;;;;;;;81.13;43.28;;;;;;;;;;5119606;28;20110;-84
2022/03/04 08:30:12;;;;;;;78.40;42.55;;;;;;;;;;5100682;28;20065;-85
2022/03/04 08:32:39;;;;;;;78.38;43.85;;;;;;;;;;5119906;28;20030;-84
2022/03/04 08:35:05;;;;;;;80.93;42.92;;;;;;;;;;5119907;28;20028;-84
2022/03/04 08:37:32;;;;;;;82.82;43.67;;;;;;;;;;5119804;28;20439;-84
2022/03/04 08:39:58;;;;;;;81.78;45.03;;;;;;;;;;5101640;28;20039;-84
2022/03/04 08:42:24;;;;;;;84.80;45.30;;;;;;;;;;5119946;28;20047;-84
2022/03/04 08:44:52;;;;;;;99.43;46.53;;;;;;;;;;5119749;28;20020;-84
2022/03/04 08:47:18;;;;;;;92.78;45.53;;;;;;;;;;5119623;28;20031;-84
2022/03/04 08:49:44;;;;;;;71.95;39.50;;;;;;;;;;5119451;28;20020;-84
2022/03/04 08:52:10;;;;;;;72.25;37.80;;;;;;;;;;5119454;28;20105;-84
2022/03/04 08:54:37;;;;;;;56.35;32.78;;;;;;;;;;5100970;28;20173;-84
2022/03/04 08:57:03;;;;;;;55.13;32.60;;;;;;;;;;5119311;28;20418;-84
2022/03/04 08:59:29;;;;;;;60.05;34.40;;;;;;;;;;5118475;28;20396;-84
2022/03/04 09:01:56;;;;;;;59.33;33.30;;;;;;;;;;5100742;28;20325;-84
2022/03/04 09:04:22;;;;;;;59.65;34.70;;;;;;;;;;5101130;28;20035;-84
2022/03/04 09:06:49;;;;;;;60.67;35.92;;;;;;;;;;5119081;28;20023;-84
2022/03/04 09:09:28;;;;;;;67.82;38.30;;;;;;;;;;5100442;28;20032;-83
2022/03/04 09:11:54;;;;;;;66.20;36.53;;;;;;;;;;5119084;28;20027;-83
2022/03/04 09:14:23;;;;;;;67.05;37.53;;;;;;;;;;5119111;28;20065;-83
2022/03/04 09:16:49;;;;;;;65.72;36.33;;;;;;;;;;5118852;28;20035;-83
2022/03/04 09:19:15;;;;;;;64.75;36.72;;;;;;;;;;5118830;28;20313;-84
2022/03/04 09:21:41;;;;;;;57.22;34.38;;;;;;;;;;5119014;28;20027;-82
2022/03/04 09:24:08;;;;;;;61.50;34.75;;;;;;;;;;5118811;28;20072;-82
2022/03/04 09:26:34;;;;;;;63.15;34.50;;;;;;;;;;5118711;28;20024;-83
2022/03/04 09:29:00;;;;;;;61.95;33.60;;;;;;;;;;5100056;28;20371;-83
2022/03/04 09:31:26;;;;;;;57.42;33.10;;;;;;;;;;5100054;28;20039;-82
2022/03/04 09:33:53;;;;;;;52.75;32.15;;;;;;;;;;5118412;28;20075;-82
2022/03/04 09:36:19;;;;;;;55.78;30.70;;;;;;;;;;5118618;28;20103;-82
2022/03/04 09:38:45;;;;;;;55.85;30.15;;;;;;;;;;5118770;28;20053;-83
2022/03/04 09:41:12;;;;;;;55.53;29.75;;;;;;;;;;5118493;28;20020;-83
2022/03/04 09:43:39;;;;;;;50.30;28.13;;;;;;;;;;5118446;28;20020;-83
2022/03/04 09:46:05;;;;;;;50.67;28.90;;;;;;;;;;5118896;28;20028;-83
2022/03/04 09:48:34;;;;;;;52.33;28.67;;;;;;;;;;5118788;28;20042;-85
2022/03/04 09:51:00;;;;;;;47.50;29.17;;;;;;;;;;5118479;28;20089;-85
2022/03/04 09:53:27;;;;;;;44.65;28.70;;;;;;;;;;5119009;28;20073;-84
2022/03/04 09:55:53;;;;;;;46.78;28.23;;;;;;;;;;5118461;28;20036;-84
2022/03/04 09:58:21;;;;;;;47.90;27.60;;;;;;;;;;5118032;28;20048;-84
2022/03/04 10:00:47;;;;;;;44.45;28.40;;;;;;;;;;5118285;28;20103;-84
2022/03/04 10:03:32;;;;;;;42.33;27.67;;;;;;;;;;5118149;28;20030;-84
2022/03/04 10:05:59;;;;;;;43.38;25.40;;;;;;;;;;5118164;28;20413;-84
2022/03/04 10:08:26;;;;;;;42.65;24.35;;;;;;;;;;5118287;28;20452;-84
2022/03/04 10:10:53;;;;;;;41.17;25.42;;;;;;;;;;5099996;28;20028;-84
2022/03/04 10:13:19;;;;;;;42.83;26.00;;;;;;;;;;5118031;28;20047;-84
2022/03/04 10:15:55;;;;;;;46.60;25.60;;;;;;;;;;5118258;28;20023;-84
2022/03/04 10:18:29;;;;;;;45.38;25.60;;;;;;;;;;5117963;28;20019;-84
2022/03/04 10:20:55;;;;;;;39.55;24.13;;;;;;;;;;5117919;28;20492;-83
2022/03/04 10:23:22;;;;;;;39.40;23.00;;;;;;;;;;5117816;28;20049;-84
2022/03/04 10:25:49;;;;;;;39.92;24.45;;;;;;;;;;5099179;28;20334;-84
2022/03/04 10:28:16;;;;;;;44.20;23.27;;;;;;;;;;5117794;28;20054;-84
2022/03/04 10:30:43;;;;;;;35.80;21.85;;;;;;;;;;5099797;28;20076;-86
2022/03/04 10:33:12;;;;;;;31.20;21.17;;;;;;;;;;5118279;28;20314;-83
2022/03/04 10:35:38;;;;;;;40.58;21.60;;;;;;;;;;5099722;28;20485;-84
2022/03/04 10:38:05;;;;;;;41.55;21.67;;;;;;;;;;5117570;28;20035;-84
2022/03/04 10:40:42;;;;;;;36.63;21.50;;;;;;;;;;5117650;28;20023;-83
2022/03/04 10:43:10;;;;;;;37.17;21.85;;;;;;;;;;5117861;28;20118;-83
2022/03/04 10:45:40;;;;;;;39.08;22.02;;;;;;;;;;5117456;28;20032;-84
2022/03/04 10:48:08;;;;;;;34.08;21.27;;;;;;;;;;5099649;28;20068;-83
2022/03/04 10:50:38;;;;;;;32.08;20.52;;;;;;;;;;5117551;28;20055;-84
2022/03/04 10:53:08;;;;;;;36.88;21.40;;;;;;;;;;5117969;28;20039;-85
2022/03/04 10:55:42;;;;;;;35.58;20.55;;;;;;;;;;5117875;28;20313;-84
2022/03/04 10:58:16;;;;;;;38.30;19.77;;;;;;;;;;5124956;28;20043;-84
2022/03/04 11:00:50;;;;;;;30.05;18.08;;;;;;;;;;5138484;28;20020;-83
2022/03/04 11:03:17;;;;;;;32.75;19.58;;;;;;;;;;5138001;28;20459;-83
2022/03/04 11:05:43;;;;;;;38.42;20.23;;;;;;;;;;5119898;28;20023;-83
2022/03/04 11:08:10;;;;;;;31.58;17.48;;;;;;;;;;5138358;28;20027;-84
2022/03/04 11:10:36;;;;;;;29.50;18.15;;;;;;;;;;5137848;28;20055;-83
2022/03/04 11:13:06;;;;;;;29.15;18.10;;;;;;;;;;5119430;28;20070;-84
2022/03/04 11:15:33;;;;;;;30.63;19.58;;;;;;;;;;5137963;28;20026;-83
2022/03/04 11:18:01;;;;;;;33.35;19.40;;;;;;;;;;5119765;28;20022;-83
2022/03/04 11:20:27;;;;;;;32.75;18.58;;;;;;;;;;5136020;28;20043;-84
2022/03/04 11:22:54;;;;;;;33.67;18.30;;;;;;;;;;5132278;27;20027;-83
2022/03/04 11:25:22;;;;;;;32.85;19.23;;;;;;;;;;5123264;27;20127;-83
2022/03/04 11:27:49;;;;;;;28.42;17.65;;;;;;;;;;5142105;27;20035;-83
2022/03/04 11:30:31;;;;;;;25.83;18.17;;;;;;;;;;5123670;27;20023;-83
2022/03/04 11:33:01;;;;;;;44.60;24.38;;;;;;;;;;5141610;27;20019;-83
2022/03/04 11:35:48;;;;;;;37.38;22.60;;;;;;;;;;5123263;27;20035;-83
2022/03/04 11:38:15;;;;;;;60.65;28.80;;;;;;;;;;5137484;27;20309;-82
2022/03/04 11:40:49;;;;;;;80.43;34.53;;;;;;;;;;5137777;27;20125;-86
2022/03/04 11:43:16;;;;;;;37.97;21.27;;;;;;;;;;5121414;27;20069;-85
2022/03/04 11:45:42;;;;;;;36.22;20.55;;;;;;;;;;5141869;27;20027;-85
2022/03/04 11:48:09;;;;;;;36.63;22.38;;;;;;;;;;5122716;27;20068;-85
2022/03/04 11:50:37;;;;;;;34.97;22.90;;;;;;;;;;5138362;27;20306;-85
2022/03/04 11:53:15;;;;;;;41.40;23.20;;;;;;;;;;5136362;27;20060;-86
2022/03/04 11:56:01;;;;;;;45.78;23.55;;;;;;;;;;5122792;27;20019;-87
2022/03/04 11:58:27;;;;;;;38.35;22.55;;;;;;;;;;5122934;27;20096;-87
2022/03/04 12:01:13;;;;;;;30.52;19.60;;;;;;;;;;5141434;27;20020;-86
2022/03/04 12:03:59;;;;;;;31.17;20.55;;;;;;;;;;5123006;27;20038;-87
2022/03/04 12:06:25;;;;;;;29.73;19.48;;;;;;;;;;5123137;27;20435;-87
2022/03/04 12:08:51;;;;;;;20.95;14.07;;;;;;;;;;5141326;27;20068;-89
2022/03/04 12:11:26;;;;;;;24.88;16.08;;;;;;;;;;5122517;27;20039;-87
2022/03/04 12:14:07;;;;;;;32.15;18.15;;;;;;;;;;5141180;27;20458;-87
2022/03/04 12:17:05;;;;;;;33.65;19.02;;;;;;;;;;5140820;27;20033;-86
2022/03/04 12:19:34;;;;;;;38.20;21.02;;;;;;;;;;5139462;27;20031;-87
2022/03/04 12:22:01;;;;;;;43.97;26.52;;;;;;;;;;5122758;27;20057;-87
2022/03/04 12:24:30;;;;;;;38.42;22.45;;;;;;;;;;5140791;27;20023;-87
2022/03/04 12:27:31;;;;;;;37.42;22.35;;;;;;;;;;5140903;27;20026;-86
2022/03/04 12:30:14;;;;;;;44.22;25.02;;;;;;;;;;5140681;27;20070;-87
2022/03/04 12:32:47;;;;;;;39.58;25.20;;;;;;;;;;5140435;27;20027;-88
2022/03/04 12:35:15;;;;;;;47.08;28.80;;;;;;;;;;5139789;27;20393;-85
2022/03/04 12:37:41;;;;;;;71.97;37.58;;;;;;;;;;5140594;27;20024;-87
2022/03/04 12:40:08;;;;;;;48.92;26.48;;;;;;;;;;5140561;27;20404;-87
2022/03/04 12:42:34;;;;;;;34.08;21.35;;;;;;;;;;5122354;27;20118;-86
2022/03/04 12:45:00;;;;;;;37.63;21.63;;;;;;;;;;5140716;27;20015;-84
2022/03/04 12:47:27;;;;;;;37.05;20.38;;;;;;;;;;5140400;27;20388;-86
2022/03/04 12:49:54;;;;;;;33.03;20.00;;;;;;;;;;5140666;27;20046;-87
2022/03/04 12:52:24;;;;;;;33.38;19.17;;;;;;;;;;5140546;27;20027;-86
2022/03/04 12:54:50;;;;;;;30.23;18.65;;;;;;;;;;5140111;27;20054;-86
2022/03/04 12:57:19;;;;;;;31.25;18.58;;;;;;;;;;5139960;27;20073;-87
2022/03/04 12:59:50;;;;;;;31.10;19.85;;;;;;;;;;5140192;27;20467;-87
2022/03/04 13:02:16;;;;;;;30.63;19.92;;;;;;;;;;5140106;27;20024;-86
2022/03/04 13:04:55;;;;;;;33.72;20.88;;;;;;;;;;5121760;27;20024;-86
2022/03/04 13:07:21;;;;;;;35.10;21.63;;;;;;;;;;5139987;27;20401;-86
2022/03/04 13:09:48;;;;;;;31.58;22.55;;;;;;;;;;5140081;27;20428;-86
2022/03/04 13:12:14;;;;;;;35.92;23.48;;;;;;;;;;5139802;27;20027;-86
2022/03/04 13:14:40;;;;;;;32.28;21.23;;;;;;;;;;5139727;27;20420;-86
2022/03/04 13:17:11;;;;;;;31.50;20.83;;;;;;;;;;5140045;27;20110;-87
2022/03/04 13:19:39;;;;;;;105.88;62.47;;;;;;;;;;5139662;27;20424;-86
2022/03/04 13:22:08;;;;;;;84.78;54.45;;;;;;;;;;5139478;27;20027;-87
2022/03/04 13:24:55;;;;;;;56.42;39.10;;;;;;;;;;5139729;27;20019;-86
2022/03/04 13:27:21;;;;;;;102.32;52.90;;;;;;;;;;5139926;27;20044;-86
2022/03/04 13:29:57;;;;;;;80.60;43.40;;;;;;;;;;5139394;27;20039;-85
2022/03/04 13:32:24;;;;;;;50.40;29.00;;;;;;;;;;5139544;27;20027;-86
2022/03/04 13:34:56;;;;;;;57.78;30.40;;;;;;;;;;5139559;27;20062;-88
2022/03/04 13:37:23;;;;;;;42.10;25.67;;;;;;;;;;5120673;27;20027;-88
2022/03/04 13:40:00;;;;;;;47.65;28.67;;;;;;;;;;5139413;27;20393;-87
2022/03/04 13:42:26;;;;;;;69.78;40.45;;;;;;;;;;5139246;27;20016;-86
2022/03/04 13:44:54;;;;;;;82.63;48.75;;;;;;;;;;5120547;27;20050;-87
2022/03/04 13:47:30;;;;;;;79.30;48.40;;;;;;;;;;5138967;27;20024;-87
2022/03/04 13:49:57;;;;;;;65.90;39.08;;;;;;;;;;5139355;27;20041;-87
2022/03/04 13:52:23;;;;;;;53.80;30.98;;;;;;;;;;5139692;27;20035;-87
2022/03/04 13:54:49;;;;;;;39.17;24.17;;;;;;;;;;5138767;27;20041;-87
2022/03/04 13:57:25;;;;;;;33.65;20.85;;;;;;;;;;5138949;27;20463;-87
2022/03/04 13:59:51;;;;;;;31.15;19.83;;;;;;;;;;5139191;27;20017;-87
2022/03/04 14:02:18;;;;;;;39.65;24.85;;;;;;;;;;5120051;27;20040;-87
2022/03/04 14:04:53;;;;;;;36.95;22.95;;;;;;;;;;5138897;27;20023;-87
2022/03/04 14:07:21;;;;;;;38.58;22.98;;;;;;;;;;5120842;27;20027;-88
2022/03/04 14:09:50;;;;;;;44.38;24.33;;;;;;;;;;5138933;27;20023;-84
2022/03/04 14:12:16;;;;;;;36.25;23.67;;;;;;;;;;5139128;27;20046;-87
2022/03/04 14:14:42;;;;;;;38.13;24.58;;;;;;;;;;5138888;27;20030;-88
2022/03/04 14:17:08;;;;;;;43.33;26.17;;;;;;;;;;5138782;27;20080;-88
2022/03/04 14:19:34;;;;;;;68.18;32.92;;;;;;;;;;5119682;27;20057;-88
2022/03/04 14:22:00;;;;;;;115.43;54.63;;;;;;;;;;5139122;27;20351;-87